createdAt,value
2018-05-21T00:01:55.932Z,8.57
2018-05-21T00:04:23.552Z,8.43
2018-05-21T00:06:51.199Z,8.80
2018-05-21T00:09:18.792Z,8.40
2018-05-21T00:11:46.488Z,9.10
2018-05-21T00:14:14.474Z,8.40
2018-05-21T00:16:44.116Z,8.73
2018-05-21T00:19:11.730Z,9.00
2018-05-21T00:21:39.473Z,8.00
2018-05-21T00:24:07.063Z,8.27
2018-05-21T00:26:34.708Z,8.47
2018-05-21T00:29:02.529Z,9.27
2018-05-21T00:31:30.222Z,8.47
2018-05-21T00:33:57.957Z,8.37
2018-05-21T00:36:28.886Z,9.30
2018-05-21T00:39:00.993Z,8.20
2018-05-21T00:41:31.833Z,9.10
2018-05-21T00:43:59.608Z,9.30
2018-05-21T00:46:33.545Z,8.93
2018-05-21T00:49:01.249Z,8.20
2018-05-21T00:51:28.893Z,8.77
2018-05-21T00:53:56.834Z,9.17
2018-05-21T00:56:24.465Z,9.20
2018-05-21T00:58:52.099Z,8.20
2018-05-21T01:01:19.848Z,9.57
2018-05-21T01:03:50.704Z,8.63
2018-05-21T01:06:18.473Z,8.43
2018-05-21T01:08:46.572Z,8.53
2018-05-21T01:11:14.240Z,8.97
2018-05-21T01:13:42.348Z,9.03
2018-05-21T01:16:10.032Z,9.37
2018-05-21T01:18:37.620Z,8.70
2018-05-21T01:21:05.331Z,8.80
2018-05-21T01:23:33.163Z,8.90
2018-05-21T01:26:00.856Z,8.63
2018-05-21T01:28:28.475Z,8.10
2018-05-21T01:30:56.331Z,9.13
2018-05-21T01:33:24.053Z,9.07
2018-05-21T01:35:51.699Z,9.43
2018-05-21T01:38:19.833Z,8.23
2018-05-21T01:40:47.439Z,9.03
2018-05-21T01:43:15.071Z,9.80
2018-05-21T01:45:42.888Z,9.93
2018-05-21T01:48:10.556Z,9.63
2018-05-21T01:50:38.235Z,10.07
2018-05-21T01:53:06.056Z,9.33
2018-05-21T01:55:33.891Z,11.40
2018-05-21T01:58:05.399Z,11.03
2018-05-21T02:00:33.152Z,9.27
2018-05-21T02:03:00.881Z,12.27
2018-05-21T02:05:28.492Z,13.33
2018-05-21T02:07:56.677Z,11.70
2018-05-21T02:10:24.269Z,10.53
2018-05-21T02:12:55.183Z,10.60
2018-05-21T02:15:23.059Z,10.40
2018-05-21T02:17:50.697Z,10.03
2018-05-21T02:20:18.371Z,10.03
2018-05-21T02:22:46.183Z,10.97
2018-05-21T02:25:13.837Z,11.13
2018-05-21T02:27:41.512Z,11.23
2018-05-21T02:30:09.219Z,11.30
2018-05-21T02:32:40.361Z,11.33
2018-05-21T02:35:07.995Z,11.40
2018-05-21T02:37:35.833Z,10.73
2018-05-21T02:40:03.610Z,10.80
2018-05-21T02:42:31.202Z,10.83
2018-05-21T02:45:00.372Z,11.17
2018-05-21T02:47:27.984Z,11.87
2018-05-21T02:49:55.592Z,12.43
2018-05-21T02:52:40.789Z,11.57
2018-05-21T02:55:08.521Z,10.83
2018-05-21T02:57:36.203Z,11.83
2018-05-21T03:00:03.897Z,11.00
2018-05-21T03:02:31.509Z,11.97
2018-05-21T03:04:59.178Z,12.13
2018-05-21T03:07:33.480Z,12.43
2018-05-21T03:10:04.555Z,13.50
2018-05-21T03:12:32.175Z,12.83
2018-05-21T03:14:59.853Z,13.77
2018-05-21T03:17:27.535Z,13.43
2018-05-21T03:19:55.157Z,13.27
2018-05-21T03:22:23.336Z,13.30
2018-05-21T03:24:51.072Z,11.93
2018-05-21T03:27:18.722Z,12.77
2018-05-21T03:29:46.427Z,12.03
2018-05-21T03:32:14.073Z,11.53
2018-05-21T03:34:41.819Z,13.20
2018-05-21T03:37:09.613Z,12.37
2018-05-21T03:39:37.215Z,12.20
2018-05-21T03:42:05.922Z,12.23
2018-05-21T03:44:34.116Z,12.97
2018-05-21T03:47:01.854Z,12.90
2018-05-21T03:49:29.911Z,14.07
2018-05-21T03:51:57.793Z,13.20
2018-05-21T03:54:26.522Z,16.17
2018-05-21T03:56:54.179Z,15.90
2018-05-21T03:59:33.889Z,15.90
2018-05-21T04:02:13.156Z,15.37
2018-05-21T04:04:40.922Z,14.47
2018-05-21T04:07:09.544Z,14.50
2018-05-21T04:09:37.202Z,13.83
2018-05-21T04:12:05.326Z,13.50
2018-05-21T04:14:36.606Z,15.00
2018-05-21T04:17:04.256Z,15.77
2018-05-21T04:19:31.955Z,15.27
2018-05-21T04:21:59.631Z,15.20
2018-05-21T04:24:27.291Z,15.93
2018-05-21T04:26:54.991Z,14.37
2018-05-21T04:29:23.651Z,14.97
2018-05-21T04:31:55.456Z,14.13
2018-05-21T04:34:23.090Z,14.87
2018-05-21T04:36:50.694Z,13.33
2018-05-21T04:39:18.325Z,14.30
2018-05-21T04:41:45.959Z,13.87
2018-05-21T04:44:13.635Z,13.77
2018-05-21T04:46:41.348Z,14.43
2018-05-21T04:49:08.933Z,13.13
2018-05-21T04:51:36.628Z,12.87
2018-05-21T04:54:11.786Z,12.50
2018-05-21T04:56:39.524Z,13.90
2018-05-21T04:59:07.200Z,13.03
2018-05-21T05:01:34.944Z,12.50
2018-05-21T05:04:06.429Z,12.20
2018-05-21T05:06:37.291Z,11.77
2018-05-21T05:09:04.994Z,11.03
2018-05-21T05:11:38.327Z,10.87
2018-05-21T05:14:06.097Z,11.90
2018-05-21T05:16:38.111Z,10.73
2018-05-21T05:19:06.023Z,10.70
2018-05-21T05:21:37.151Z,10.87
2018-05-21T05:24:10.763Z,10.87
2018-05-21T05:26:38.515Z,10.70
2018-05-21T05:29:06.131Z,11.17
2018-05-21T05:31:40.375Z,11.20
2018-05-21T05:34:07.948Z,11.20
2018-05-21T05:36:35.652Z,12.93
2018-05-21T05:39:03.499Z,13.33
2018-05-21T05:41:31.243Z,14.70
2018-05-21T05:43:59.876Z,14.20
2018-05-21T05:46:31.476Z,15.10
2018-05-21T05:49:11.644Z,14.17
2018-05-21T05:51:40.267Z,13.60
2018-05-21T05:54:10.952Z,13.50
2018-05-21T05:56:38.644Z,13.73
2018-05-21T05:59:06.504Z,12.20
2018-05-21T06:01:34.370Z,14.10
2018-05-21T06:04:02.049Z,13.40
2018-05-21T06:06:33.896Z,13.23
2018-05-21T06:09:01.662Z,12.67
2018-05-21T06:11:35.505Z,13.17
2018-05-21T06:14:06.440Z,14.47
2018-05-21T06:16:34.048Z,14.70
2018-05-21T06:19:05.409Z,15.60
2018-05-21T06:21:36.141Z,13.37
2018-05-21T06:24:03.784Z,14.57
2018-05-21T06:26:31.616Z,14.77
2018-05-21T06:28:59.310Z,14.77
2018-05-21T06:31:27.009Z,15.30
2018-05-21T06:34:01.898Z,14.53
2018-05-21T06:36:29.645Z,14.67
2018-05-21T06:39:00.767Z,14.87
2018-05-21T06:41:28.953Z,13.63
2018-05-21T06:43:56.586Z,15.30
2018-05-21T06:46:30.208Z,14.67
2018-05-21T06:48:57.807Z,14.73
2018-05-21T06:51:33.892Z,14.83
2018-05-21T06:54:01.521Z,15.10
2018-05-21T06:56:29.166Z,13.60
2018-05-21T06:59:03.019Z,12.93
2018-05-21T07:01:36.810Z,13.13
2018-05-21T07:04:28.041Z,13.10
2018-05-21T07:07:08.396Z,13.57
2018-05-21T07:09:36.050Z,13.63
2018-05-21T07:12:07.594Z,13.20
2018-05-21T07:14:41.008Z,14.53
2018-05-21T07:17:11.853Z,13.57
2018-05-21T07:19:39.561Z,14.30
2018-05-21T07:22:08.409Z,14.03
2018-05-21T07:24:36.078Z,14.53
2018-05-21T07:27:03.757Z,14.38
2018-05-21T07:29:31.412Z,14.00
2018-05-21T07:31:59.083Z,13.53
2018-05-21T07:34:27.733Z,14.45
2018-05-21T07:36:55.441Z,14.05
2018-05-21T07:39:26.123Z,13.30
2018-05-21T07:41:53.749Z,13.55
2018-05-21T07:44:23.335Z,12.82
2018-05-21T07:46:54.435Z,12.13
2018-05-21T07:49:22.062Z,11.70
2018-05-21T07:51:49.758Z,11.75
2018-05-21T07:54:17.372Z,11.55
2018-05-21T07:56:45.009Z,11.00
2018-05-21T07:59:12.873Z,11.85
2018-05-21T08:01:40.542Z,11.98
2018-05-21T08:04:08.174Z,12.23
2018-05-21T08:06:35.936Z,12.43
2018-05-21T08:09:03.676Z,12.43
2018-05-21T08:11:31.402Z,13.38
2018-05-21T08:13:59.235Z,11.70
2018-05-21T08:16:26.962Z,11.93
2018-05-21T08:18:54.687Z,11.40
2018-05-21T08:21:22.722Z,13.80
2018-05-21T08:23:50.315Z,12.50
2018-05-21T08:26:17.965Z,13.02
2018-05-21T08:28:45.678Z,11.48
2018-05-21T08:31:19.552Z,11.95
2018-05-21T08:33:48.304Z,12.57
2018-05-21T08:36:16.034Z,12.30
2018-05-21T08:38:43.656Z,11.93
2018-05-21T08:41:11.467Z,12.70
2018-05-21T08:43:39.225Z,11.25
2018-05-21T08:46:06.988Z,11.70
2018-05-21T08:48:35.109Z,12.23
2018-05-21T08:51:03.698Z,11.93
2018-05-21T08:53:31.596Z,11.77
2018-05-21T08:55:59.475Z,11.00
2018-05-21T08:58:27.196Z,10.27
2018-05-21T09:00:54.918Z,11.10
2018-05-21T09:03:26.079Z,11.27
2018-05-21T09:05:56.977Z,10.68
2018-05-21T09:08:24.721Z,11.05
2018-05-21T09:10:52.618Z,10.63
2018-05-21T09:13:20.643Z,9.57
2018-05-21T09:15:48.393Z,8.32
2018-05-21T09:18:20.186Z,9.35
2018-05-21T09:20:47.808Z,14.05
2018-05-21T09:23:15.459Z,7.05
2018-05-21T09:25:43.115Z,8.27
2018-05-21T09:28:10.734Z,7.18
2018-05-21T09:30:38.384Z,7.00
2018-05-21T09:33:06.173Z,7.00
2018-05-21T09:35:40.836Z,7.20
2018-05-21T09:38:09.131Z,7.45
2018-05-21T09:43:36.541Z,7.65
2018-05-21T09:46:08.157Z,8.52
2018-05-21T09:48:37.096Z,6.65
2018-05-21T09:51:05.971Z,6.70
2018-05-21T09:53:34.118Z,6.47
2018-05-21T09:56:01.885Z,6.45
2018-05-21T09:58:30.657Z,7.05
2018-05-21T10:00:59.618Z,7.22
2018-05-21T10:03:29.536Z,6.68
2018-05-21T10:05:57.575Z,6.60
2018-05-21T10:11:10.564Z,7.12
2018-05-21T10:13:38.244Z,8.05
2018-05-21T10:16:07.389Z,7.10
2018-05-21T10:18:35.253Z,7.95
2018-05-21T10:21:02.948Z,6.68
2018-05-21T10:23:31.661Z,7.65
2018-05-21T10:25:59.397Z,7.07
2018-05-21T10:28:26.964Z,7.40
2018-05-21T10:30:58.029Z,7.90
2018-05-21T10:33:26.263Z,7.20
2018-05-21T10:35:54.028Z,7.50
2018-05-21T10:38:22.732Z,7.05
2018-05-21T10:40:53.754Z,7.00
2018-05-21T10:43:21.422Z,7.30
2018-05-21T10:45:49.122Z,7.18
2018-05-21T10:48:16.933Z,7.37
2018-05-21T10:50:44.639Z,7.60
2018-05-21T10:53:12.283Z,7.18
2018-05-21T10:55:40.138Z,7.62
2018-05-21T10:58:07.841Z,8.15
2018-05-21T11:00:35.493Z,7.68
2018-05-21T11:03:08.241Z,7.78
2018-05-21T11:05:35.949Z,8.02
2018-05-21T11:08:03.586Z,6.53
2018-05-21T11:10:31.414Z,6.97
2018-05-21T11:12:59.072Z,7.32
2018-05-21T11:15:26.797Z,7.97
2018-05-21T11:17:55.893Z,9.18
2018-05-21T11:20:24.573Z,6.50
2018-05-21T11:22:58.995Z,6.50
2018-05-21T11:25:27.609Z,7.00
2018-05-21T11:27:55.271Z,6.25
2018-05-21T11:30:23.440Z,7.30
2018-05-21T11:32:52.554Z,7.93
2018-05-21T11:35:35.528Z,6.50
2018-05-21T11:38:10.240Z,5.85
2018-05-21T11:40:38.153Z,6.53
2018-05-21T11:43:05.827Z,5.85
2018-05-21T11:45:33.463Z,6.03
2018-05-21T11:48:01.630Z,6.55
2018-05-21T11:50:29.183Z,5.80
2018-05-21T11:53:09.317Z,6.45
2018-05-21T11:58:14.797Z,6.37
2018-05-21T12:00:48.159Z,6.25
2018-05-21T12:03:15.894Z,6.20
2018-05-21T12:05:43.539Z,6.60
2018-05-21T12:08:18.429Z,6.47
2018-05-21T12:10:46.104Z,6.28
2018-05-21T12:13:13.833Z,6.35
2018-05-21T12:15:45.961Z,6.03
2018-05-21T12:18:17.881Z,5.72
2018-05-21T12:20:47.649Z,6.57
2018-05-21T12:23:15.227Z,5.60
2018-05-21T12:25:47.023Z,5.37
2018-05-21T12:28:15.084Z,4.75
2018-05-21T12:30:42.825Z,5.00
2018-05-21T12:33:18.496Z,4.28
2018-05-21T12:35:46.094Z,4.80
2018-05-21T12:38:14.773Z,4.28
2018-05-21T12:40:44.510Z,9.50
2018-05-21T12:43:12.068Z,4.72
2018-05-21T12:45:39.750Z,6.15
2018-05-21T12:48:07.418Z,3.50
2018-05-21T12:50:35.108Z,4.55
2018-05-21T12:53:03.548Z,5.68
2018-05-21T12:55:37.595Z,3.50
2018-05-21T12:58:14.487Z,4.70
2018-05-21T13:00:45.834Z,3.78
2018-05-21T13:03:19.467Z,3.65
2018-05-21T13:05:47.150Z,3.80
2018-05-21T13:08:14.745Z,3.83
2018-05-21T13:10:42.319Z,4.32
2018-05-21T13:13:10.080Z,4.37
2018-05-21T13:15:41.590Z,4.15
2018-05-21T13:18:09.282Z,5.37
2018-05-21T13:20:37.031Z,4.47
2018-05-21T13:23:04.656Z,4.78
2018-05-21T13:25:35.555Z,6.68
2018-05-21T13:28:09.156Z,5.70
2018-05-21T13:30:40.895Z,4.15
2018-05-21T13:33:15.955Z,4.00
2018-05-21T13:35:43.680Z,4.43
2018-05-21T13:38:12.812Z,4.40
2018-05-21T13:40:40.574Z,4.62
2018-05-21T13:43:08.413Z,4.30
2018-05-21T13:45:36.555Z,5.18
2018-05-21T13:48:29.833Z,4.85
2018-05-21T13:50:57.585Z,3.90
2018-05-21T13:53:37.861Z,4.62
2018-05-21T13:56:06.534Z,6.60
2018-05-21T13:58:35.182Z,6.05
2018-05-21T14:01:06.872Z,4.30
2018-05-21T14:06:29.169Z,3.97
2018-05-21T14:08:56.818Z,3.72
2018-05-21T14:11:24.474Z,3.87
2018-05-21T14:13:52.157Z,4.43
2018-05-21T14:16:20.966Z,4.43
2018-05-21T14:18:58.621Z,5.07
2018-05-21T14:21:31.229Z,4.95
2018-05-21T14:24:07.138Z,5.30
2018-05-21T14:26:34.943Z,4.80
2018-05-21T14:29:16.866Z,4.47
2018-05-21T14:31:44.744Z,3.80
2018-05-21T14:34:23.690Z,5.15
2018-05-21T14:36:51.376Z,4.10
2018-05-21T14:39:19.301Z,5.60
2018-05-21T14:41:47.363Z,3.45
2018-05-21T14:44:15.058Z,3.95
2018-05-21T14:46:51.664Z,4.43
2018-05-21T14:49:19.353Z,3.97
2018-05-21T14:51:46.994Z,4.20
2018-05-21T14:54:15.044Z,3.25
2018-05-21T14:56:42.800Z,4.28
2018-05-21T14:59:17.023Z,3.78
2018-05-21T15:01:44.625Z,3.97
2018-05-21T15:04:13.351Z,3.20
2018-05-21T15:06:41.216Z,3.50
2018-05-21T15:09:08.783Z,3.58
2018-05-21T15:11:36.442Z,4.22
2018-05-21T15:14:04.536Z,4.05
2018-05-21T15:16:32.180Z,4.10
2018-05-21T15:18:59.839Z,4.28
2018-05-21T15:21:27.654Z,7.10
2018-05-21T15:23:55.365Z,6.07
2018-05-21T15:26:23.055Z,5.22
2018-05-21T15:28:55.396Z,4.90
2018-05-21T15:31:23.042Z,6.47
2018-05-21T15:33:50.663Z,8.02
2018-05-21T15:36:18.537Z,8.10
2018-05-21T15:38:46.208Z,9.52
2018-05-21T15:41:13.880Z,10.38
2018-05-21T15:43:42.594Z,10.00
2018-05-21T15:46:10.222Z,11.20
2018-05-21T15:48:37.931Z,11.15
2018-05-21T15:51:05.583Z,10.63
2018-05-21T15:53:33.170Z,10.02
2018-05-21T15:56:00.878Z,10.68
2018-05-21T15:58:28.574Z,11.85
2018-05-21T16:00:56.322Z,11.93
2018-05-21T16:03:24.257Z,11.20
2018-05-21T16:05:52.461Z,12.68
2018-05-21T16:08:20.207Z,11.60
2018-05-21T16:10:47.823Z,12.20
2018-05-21T16:13:15.469Z,11.55
2018-05-21T16:15:43.638Z,11.05
2018-05-21T16:18:11.227Z,12.40
2018-05-21T16:20:38.899Z,11.52
2018-05-21T16:23:06.831Z,13.25
2018-05-21T16:25:34.420Z,12.57
2018-05-21T16:28:02.031Z,12.90
2018-05-21T16:30:29.742Z,13.35
2018-05-21T16:32:57.385Z,13.52
2018-05-21T16:35:25.102Z,13.80
2018-05-21T16:37:52.823Z,14.68
2018-05-21T16:40:20.412Z,14.48
2018-05-21T16:42:47.999Z,12.65
2018-05-21T16:45:15.737Z,12.25
2018-05-21T16:47:43.603Z,11.48
2018-05-21T16:50:11.157Z,13.68
2018-05-21T16:52:39.048Z,13.55
2018-05-21T16:55:06.731Z,12.95
2018-05-21T16:57:34.379Z,13.15
2018-05-21T17:00:02.067Z,14.60
2018-05-21T17:02:29.660Z,13.43
2018-05-21T17:04:57.315Z,12.90
2018-05-21T17:07:25.221Z,13.38
2018-05-21T17:09:52.903Z,12.93
2018-05-21T17:12:20.554Z,12.98
2018-05-21T17:14:48.386Z,13.30
2018-05-21T17:17:16.074Z,12.57
2018-05-21T17:19:43.768Z,13.43
2018-05-21T17:22:11.429Z,12.90
2018-05-21T17:24:39.045Z,23.15
2018-05-21T17:27:06.737Z,14.38
2018-05-21T17:29:34.397Z,14.60
2018-05-21T17:32:02.036Z,14.55
2018-05-21T17:34:29.710Z,15.40
2018-05-21T17:36:57.861Z,15.93
2018-05-21T17:39:25.548Z,18.05
2018-05-21T17:41:53.288Z,18.20
2018-05-21T17:44:21.108Z,15.98
2018-05-21T17:46:48.772Z,15.33
2018-05-21T17:49:16.434Z,15.20
2018-05-21T17:51:44.190Z,15.90
2018-05-21T17:54:11.818Z,13.93
2018-05-21T17:56:39.436Z,8.00
2018-05-21T17:59:07.128Z,8.40
2018-05-21T18:01:34.771Z,10.20
2018-05-21T18:04:02.429Z,11.30
2018-05-21T18:06:30.127Z,11.43
2018-05-21T18:08:57.801Z,9.80
2018-05-21T18:11:25.361Z,9.13
2018-05-21T18:13:53.119Z,8.47
2018-05-21T18:16:20.807Z,7.63
2018-05-21T18:18:48.552Z,7.60
2018-05-21T18:21:16.477Z,7.07
2018-05-21T18:23:45.015Z,6.17
2018-05-21T18:26:12.945Z,5.27
2018-05-21T18:28:41.048Z,5.63
2018-05-21T18:31:08.625Z,5.30
2018-05-21T18:33:36.342Z,5.37
2018-05-21T18:36:04.161Z,5.27
2018-05-21T18:38:31.814Z,5.57
2018-05-21T18:40:59.487Z,6.03
2018-05-21T18:43:27.760Z,5.33
2018-05-21T18:45:55.376Z,5.70
2018-05-21T18:48:23.090Z,5.27
2018-05-21T18:50:51.216Z,5.77
2018-05-21T18:53:20.896Z,5.20
2018-05-21T18:55:48.481Z,5.70
2018-05-21T18:58:16.304Z,5.90
2018-05-21T19:00:43.899Z,5.10
2018-05-21T19:03:11.499Z,5.97
2018-05-21T19:05:39.236Z,5.20
2018-05-21T19:08:06.834Z,5.53
2018-05-21T19:10:34.495Z,5.40
2018-05-21T19:13:02.169Z,5.77
2018-05-21T19:15:29.800Z,5.70
2018-05-21T19:17:57.484Z,5.20
2018-05-21T19:20:25.180Z,5.43
2018-05-21T19:22:52.767Z,5.30
2018-05-21T19:25:20.556Z,5.47
2018-05-21T19:27:48.358Z,5.63
2018-05-21T19:30:16.582Z,5.20
2018-05-21T19:32:44.258Z,5.37
2018-05-21T19:35:11.982Z,5.60
2018-05-21T19:37:39.600Z,5.87
2018-05-21T19:40:07.212Z,5.63
2018-05-21T19:42:35.229Z,5.43
2018-05-21T19:45:02.973Z,5.43
2018-05-21T19:47:30.608Z,4.60
2018-05-21T19:49:58.497Z,5.80
2018-05-21T19:52:26.191Z,5.50
2018-05-21T19:54:53.807Z,4.83
2018-05-21T19:57:21.487Z,5.30
2018-05-21T19:59:55.400Z,5.10
2018-05-21T20:02:29.417Z,4.70
2018-05-21T20:05:04.440Z,5.00
2018-05-21T20:07:32.428Z,5.27
2018-05-21T20:10:01.161Z,5.27
2018-05-21T20:12:29.786Z,5.30
2018-05-21T20:14:57.546Z,5.00
2018-05-21T20:17:25.340Z,5.03
2018-05-21T20:19:52.987Z,4.50
2018-05-21T20:22:20.635Z,5.60
2018-05-21T20:24:48.236Z,5.00
2018-05-21T20:27:15.950Z,5.13
2018-05-21T20:29:43.569Z,5.00
2018-05-21T20:32:11.276Z,5.50
2018-05-21T20:34:39.023Z,5.23
2018-05-21T20:37:06.737Z,5.77
2018-05-21T20:39:34.401Z,5.07
2018-05-21T20:42:02.563Z,5.57
2018-05-21T20:44:30.155Z,4.83
2018-05-21T20:46:57.780Z,5.13
2018-05-21T20:49:25.872Z,5.07
2018-05-21T20:51:53.503Z,4.60
2018-05-21T20:54:21.190Z,5.20
2018-05-21T20:56:48.877Z,4.90
2018-05-21T20:59:16.528Z,4.20
2018-05-21T21:01:44.156Z,4.70
2018-05-21T21:04:11.990Z,4.40
2018-05-21T21:06:39.648Z,4.67
2018-05-21T21:09:07.328Z,4.80
2018-05-21T21:11:35.162Z,4.67
2018-05-21T21:14:02.892Z,4.60
2018-05-21T21:16:30.641Z,5.30
2018-05-21T21:18:58.468Z,4.43
2018-05-21T21:21:26.092Z,4.70
2018-05-21T21:23:53.876Z,4.60
2018-05-21T21:26:21.819Z,4.13
2018-05-21T21:28:54.337Z,4.47
2018-05-21T21:31:22.016Z,4.60
2018-05-21T21:33:49.642Z,4.47
2018-05-21T21:36:17.281Z,4.40
2018-05-21T21:38:45.105Z,5.17
2018-05-21T21:41:12.839Z,5.70
2018-05-21T21:43:40.481Z,4.87
2018-05-21T21:46:08.317Z,6.10
2018-05-21T21:48:36.007Z,5.10
2018-05-21T21:51:03.648Z,6.00
2018-05-21T21:53:31.843Z,5.03
2018-05-21T21:55:59.431Z,5.63
2018-05-21T21:58:27.096Z,5.53
2018-05-21T22:01:01.173Z,5.60
2018-05-21T22:03:35.101Z,5.33
2018-05-21T22:06:02.770Z,5.40
2018-05-21T22:08:30.396Z,5.47
2018-05-21T22:10:58.091Z,5.73
2018-05-21T22:13:25.751Z,5.53
2018-05-21T22:15:53.356Z,5.80
2018-05-21T22:18:21.054Z,5.90
2018-05-21T22:20:48.714Z,5.77
2018-05-21T22:23:16.362Z,6.13
2018-05-21T22:25:44.033Z,5.87
2018-05-21T22:28:14.995Z,4.97
2018-05-21T22:30:42.601Z,5.97
2018-05-21T22:33:11.317Z,6.10
2018-05-21T22:35:38.979Z,5.40
2018-05-21T22:38:06.620Z,5.40
2018-05-21T22:40:35.322Z,5.47
2018-05-21T22:43:03.120Z,5.40
2018-05-21T22:45:30.955Z,5.27
2018-05-21T22:47:59.634Z,5.90
2018-05-21T22:50:27.584Z,5.20
2018-05-21T22:52:55.354Z,5.37
2018-05-21T22:55:23.092Z,5.60
2018-05-21T22:57:50.746Z,5.13
2018-05-21T23:00:18.411Z,5.83
2018-05-21T23:05:20.213Z,5.73
2018-05-21T23:07:47.915Z,6.23
2018-05-21T23:10:15.598Z,6.07
2018-05-21T23:12:43.497Z,6.00
2018-05-21T23:15:11.103Z,6.03
2018-05-21T23:17:38.778Z,6.03
2018-05-21T23:20:06.585Z,7.33
2018-05-21T23:22:45.115Z,6.43
2018-05-21T23:25:12.817Z,5.67
2018-05-21T23:27:40.876Z,6.23
2018-05-21T23:30:08.528Z,5.23
2018-05-21T23:32:36.380Z,6.70
2018-05-21T23:35:04.070Z,5.50
2018-05-21T23:37:35.199Z,5.80
2018-05-21T23:40:03.008Z,6.50
2018-05-21T23:42:30.706Z,6.70
2018-05-21T23:44:58.371Z,6.93
2018-05-21T23:47:26.558Z,6.50
2018-05-21T23:49:54.159Z,6.83
2018-05-21T23:52:21.787Z,6.90
2018-05-21T23:54:49.452Z,6.87
2018-05-21T23:57:17.084Z,6.40
2018-05-21T23:59:44.734Z,7.20
